Washburn, North Dakota
Current Conditions -  °F | °C
As of 3:35 PM on Saturday 22 Nov 2014 (Local Time) from KHZE Reporting Station
Broken Clouds Broken Clouds  
Wind Chill: 36°   Ceiling: 8000
Heat Index: 41°   Visibility: 10mi
Dew Point: 30°   Wind: 7mph
Humidity: 65%   Direction: 210°SSW
Pressure: 29.32"   Gusts: NA
Location:  47.29°N, 101.03°W
Report Text: KHZE 222135Z AUTO 21006KT 10SM BKN080 BKN100 05/M01 A2932 RMK AO2
Loading
Personal Weather Stations






























Interactive Weather Map New forecast layout! Learn more

10-Day Weather Forecast

Advertisements
Track Severe Weather on mobile